Carlsbad Caverns National Park, NM

11:37 AM MDT on September 17, 2014 (GMT -0600)
KNMCARLS3 | Change Station
CLOSE
Current Station
Personal Weather Station
Location: Carlsbad, NM
Elevation: 3158 ft
Nearby Weather Stations
Active Advisory: Flash Flood Watch

Elev 3158 ft 32.43 °N, 104.25 °W | Updated 14 seconds ago

Partly Cloudy
Partly Cloudy
79.9 °F
Feels Like 83 °F
N
0.0
Wind Variable Wind from North
Gusts 6.0 mph

Today
High -- | Low -- °F
--% Chance of Precip.
Yesterday
High -- | Low -- °F
Precip. -- in
6:42 AM 7:00 PM
Waning Crescent, 34% visible
Pressure 29.92 in
Visibility 9.0 miles
Clouds Scattered Clouds 1800 ft
Heat Index 83 °F
Dew Point 68 °F
Humidity 68%
Rainfall 0.00 in
Snow Depth 0 in , 2 in , 1 in
UV 6 out of 12
Pollen 6.00 out of 12
Air Quality Not available.
Flu Activity Not available.
METAR KCNM 171653Z AUTO VRB04KT 9SM SCT018 24/21 A3007 RMK AO2 SLP131 T02440211 $

More Conditions Fewer Conditions

Pressure 29.92 in
Visibility 9.0 miles
Clouds Scattered Clouds 1800 ft
Heat Index 83 °F
Dew Point 68 °F
Humidity 68%
Rainfall 0.00 in
Snow Depth 0 in , 2 in , 1 in
UV 6 out of 12
Pollen 6.00 out of 12
Air Quality Not available.
Flu Activity Not available.
METAR KCNM 171653Z AUTO VRB04KT 9SM SCT018 24/21 A3007 RMK AO2 SLP131 T02440211 $

More Conditions Fewer Conditions

10-Day Weather Forecast

Almanac

Astronomy

Sep. 17, 2014 Rise Set
Actual Time 6:42 AM MDT 7:00 PM MDT
Civil Twilight 6:17 AM MDT 7:24 PM MDT
Nautical Twilight 5:48 AM MDT 7:53 PM MDT
Astronomical Twilight 5:19 AM MDT 8:22 PM MDT
Moon 12:58 AM MDT 2:58 PM MDT
Length of Visible Light 13h 07m
Length of Day
12h 18m
Tomorrow will be 1m 58s shorter.
Waning Crescent, 34% of the Moon is Illuminated
Today
Waning Crescent
Sep 24
New
Oct 1
First Quarter
Oct 8
Full
Oct 15
Last Quarter

Today's Extremes

State Highs State Lows

Community

WunderPhotos

Upload Photos

1,754,109 photos uploaded!

Nearby

Snow Depth

Station Depth Elevation
Tolby 0 in 10180 ft
Silver Creek Divide 2 in 9000 ft
Sierra Blanca 1 in 10280 ft
Quemazon 0 in 9500 ft
North Costilla 0 in 10600 ft

Earthquake Activity

City Distance Mag. Time & Date
No recent earthquake activity has been reported nearby.
Minimum magnitude displayed is 2.5.

Coastal Water Temperatures

Place Temperature
No Stations Reporting

Nearby Weather Stations